Time;durP1;ratioP1;P1;durP2;ratioP2;P2;SDS_P1;SDS_P2;PMS_P1;PMS_P2;Temp;Humidity;BMP_temperature;BMP_pressure;BME280_temperature;BME280_humidity;BME280_pressure;Samples;Min_cycle;Max_cycle;Signal;HPM_P1;HPM_P2
2022/11/17 00:00:55;;;;;;;5.68;1.85;;;8.00;99.90;;;;;;5089568;28;20032;-77
2022/11/17 00:03:24;;;;;;;1.83;1.48;;;8.10;99.90;;;;;;5089225;28;20078;-78
2022/11/17 00:05:56;;;;;;;1.75;1.65;;;8.10;99.90;;;;;;5089412;28;20024;-77
2022/11/17 00:08:25;;;;;;;4.18;1.92;;;8.10;99.90;;;;;;5089326;28;20031;-77
2022/11/17 00:10:57;;;;;;;1.95;1.85;;;8.00;99.90;;;;;;5087423;28;20030;-77
2022/11/17 00:16:16;;;;;;;2.80;2.03;;;8.00;99.90;;;;;;5089197;28;20042;-76
2022/11/17 00:21:39;;;;;;;3.47;2.03;;;7.90;99.90;;;;;;5091714;28;20074;-76
2022/11/17 00:24:29;;;;;;;1.35;1.25;;;8.00;99.90;;;;;;5092874;28;20104;-77
2022/11/17 00:27:07;;;;;;;4.50;2.00;;;8.00;99.90;;;;;;5092933;28;20048;-77
2022/11/17 00:29:39;;;;;;;2.90;1.55;;;7.90;99.90;;;;;;5091397;28;20024;-77
2022/11/17 00:35:00;;;;;;;1.58;1.48;;;7.90;99.90;;;;;;5092576;28;20340;-77
2022/11/17 00:37:35;;;;;;;1.65;1.42;;;7.90;99.90;;;;;;5092722;28;20484;-76
2022/11/17 00:40:13;;;;;;;2.03;1.65;;;7.80;99.90;;;;;;5092651;28;20040;-77
2022/11/17 00:42:51;;;;;;;2.10;1.75;;;7.70;99.90;;;;;;5092679;28;20055;-76
2022/11/17 00:45:18;;;;;;;2.20;2.10;;;7.70;99.90;;;;;;5091047;28;20032;-75
2022/11/17 00:47:52;;;;;;;5.15;2.22;;;7.60;99.90;;;;;;5092408;28;20016;-76
2022/11/17 00:50:41;;;;;;;2.58;2.38;;;7.40;99.90;;;;;;5090580;28;20031;-77
2022/11/17 00:53:30;;;;;;;3.20;1.98;;;7.30;99.90;;;;;;5090639;28;20013;-77
2022/11/17 00:55:59;;;;;;;;;;;7.20;99.90;;;;;;5091145;28;20095;-76
2022/11/17 00:58:31;;;;;;;4.35;2.28;;;7.20;99.90;;;;;;5090967;28;20710;-76
2022/11/17 01:00:57;;;;;;;5.32;2.45;;;7.20;99.90;;;;;;5089065;28;20028;-76
2022/11/17 01:03:29;;;;;;;5.68;3.38;;;7.20;99.90;;;;;;5089891;28;20024;-76
2022/11/17 01:06:32;;;;;;;3.67;3.25;;;7.20;99.90;;;;;;5091003;28;20020;-76
2022/11/17 01:09:12;;;;;;;6.07;3.30;;;7.30;99.90;;;;;;5089047;28;20405;-76
2022/11/17 01:11:50;;;;;;;3.85;3.05;;;7.30;99.90;;;;;;5088975;28;20055;-76
2022/11/17 01:14:18;;;;;;;6.85;2.72;;;7.40;99.90;;;;;;5088847;28;20584;-76
2022/11/17 01:16:50;;;;;;;1.48;0.98;;;7.50;99.90;;;;;;5088845;28;20093;-77
2022/11/17 01:19:45;;;;;;;1.73;1.50;;;7.80;99.90;;;;;;5088511;28;20244;-77
2022/11/17 01:22:12;;;;;;;0.77;0.60;;;8.20;99.90;;;;;;5088802;28;20032;-77
2022/11/17 01:24:43;;;;;;;4.22;1.25;;;9.00;99.90;;;;;;5091586;28;20263;-76
2022/11/17 01:27:12;;;;;;;0.20;0.20;;;9.30;99.90;;;;;;5090051;28;20481;-76
2022/11/17 01:29:44;;;;;;;0.52;0.52;;;9.70;99.90;;;;;;5091699;28;20415;-77
2022/11/17 01:32:27;;;;;;;0.85;0.25;;;10.20;99.90;;;;;;5090686;28;20028;-76
2022/11/17 01:35:28;;;;;;;0.20;0.20;;;10.60;99.90;;;;;;5089610;28;20047;-76
2022/11/17 01:38:06;;;;;;;0.10;0.10;;;11.10;99.90;;;;;;5091098;28;20422;-76
2022/11/17 01:40:33;;;;;;;0.10;0.10;;;11.50;99.90;;;;;;5091093;28;20040;-76
2022/11/17 01:43:31;;;;;;;0.10;0.10;;;11.90;99.90;;;;;;5091197;28;20020;-76
2022/11/17 01:46:02;;;;;;;0.10;0.10;;;12.00;99.60;;;;;;5091018;28;20035;-77
2022/11/17 01:48:43;;;;;;;1.65;0.13;;;12.10;97.50;;;;;;5091006;28;20027;-76
2022/11/17 01:51:15;;;;;;;0.30;0.20;;;12.20;97.10;;;;;;5091266;28;20025;-76
2022/11/17 01:53:50;;;;;;;2.53;0.25;;;12.20;97.00;;;;;;5091169;28;20105;-76
2022/11/17 01:56:31;;;;;;;0.10;0.10;;;12.10;96.70;;;;;;5090934;28;20484;-76
2022/11/17 01:59:10;;;;;;;0.20;0.20;;;12.10;97.10;;;;;;5090897;28;20105;-76
2022/11/17 02:01:54;;;;;;;0.03;0.03;;;12.00;97.30;;;;;;5090878;28;20020;-76
2022/11/17 02:05:02;;;;;;;0.20;0.20;;;12.00;97.10;;;;;;5090683;28;20028;-76
2022/11/17 02:07:45;;;;;;;0.00;0.00;;;11.90;96.60;;;;;;5076265;28;20040;-77
2022/11/17 02:10:25;;;;;;;2.03;0.10;;;11.70;98.60;;;;;;5089442;28;20496;-76
2022/11/17 02:13:03;;;;;;;0.10;0.10;;;11.50;99.90;;;;;;5088420;28;20044;-76
2022/11/17 02:15:32;;;;;;;0.15;0.15;;;11.30;99.90;;;;;;5089335;28;20116;-76
2022/11/17 02:18:06;;;;;;;;;;;11.20;99.90;;;;;;5089536;28;20035;-76
2022/11/17 02:21:06;;;;;;;0.10;0.10;;;11.10;99.90;;;;;;5090582;28;19918;-76
2022/11/17 02:24:10;;;;;;;3.83;0.30;;;11.10;99.90;;;;;;5090821;28;20024;-77
2022/11/17 02:27:17;;;;;;;0.10;0.10;;;11.10;99.90;;;;;;5090517;28;20032;-77
2022/11/17 02:33:31;;;;;;;0.22;0.20;;;11.00;99.90;;;;;;5089869;28;20027;-75
2022/11/17 02:36:23;;;;;;;0.10;0.10;;;11.00;99.90;;;;;;5089999;28;20044;-76
2022/11/17 02:39:16;;;;;;;1.10;0.10;;;11.00;99.90;;;;;;5089033;28;20542;-75
2022/11/17 02:42:09;;;;;;;0.20;0.20;;;11.00;99.90;;;;;;5090275;28;20024;-76
2022/11/17 02:45:13;;;;;;;0.35;0.10;;;11.00;99.90;;;;;;5090143;28;20246;-76
2022/11/17 02:48:01;;;;;;;4.45;0.25;;;11.00;99.90;;;;;;5090065;28;20031;-75
2022/11/17 02:50:48;;;;;;;0.00;0.00;;;11.10;99.90;;;;;;5088837;28;20039;-76
2022/11/17 02:56:16;;;;;;;0.00;0.00;;;11.60;99.90;;;;;;5089975;28;20024;-76
2022/11/17 02:58:45;;;;;;;0.38;0.10;;;;;;;;;;5089791;28;20024;-76
2022/11/17 03:02:16;;;;;;;0.13;0.13;;;12.00;99.90;;;;;;5088593;28;20573;-77
2022/11/17 03:05:06;;;;;;;0.00;0.00;;;12.00;99.80;;;;;;5089620;28;20536;-77
2022/11/17 03:08:10;;;;;;;2.35;0.20;;;12.20;98.50;;;;;;5089909;28;20060;-77
2022/11/17 03:11:23;;;;;;;0.00;0.00;;;12.50;97.20;;;;;;5089574;28;20047;-76
2022/11/17 03:14:06;;;;;;;0.10;0.10;;;12.60;96.80;;;;;;5088917;28;20040;-77
2022/11/17 03:16:45;;;;;;;1.20;0.47;;;12.70;97.10;;;;;;5089845;28;20238;-76
2022/11/17 03:19:34;;;;;;;0.53;0.10;;;12.80;96.30;;;;;;5088087;28;20378;-76
2022/11/17 03:22:27;;;;;;;0.08;0.08;;;12.80;95.90;;;;;;5088337;28;20028;-76
2022/11/17 03:25:33;;;;;;;0.20;0.20;;;12.90;96.50;;;;;;5089542;28;20473;-76
2022/11/17 03:28:46;;;;;;;0.05;0.00;;;12.90;96.20;;;;;;5089522;28;20471;-76
2022/11/17 03:31:19;;;;;;;0.30;0.08;;;13.10;95.30;;;;;;5051393;28;20024;-76
2022/11/17 03:34:11;;;;;;;0.03;0.03;;;13.10;94.70;;;;;;5089395;28;20032;-77
2022/11/17 03:37:08;;;;;;;0.00;0.00;;;13.30;94.40;;;;;;5088381;28;20527;-77
2022/11/17 03:39:41;;;;;;;2.17;0.17;;;13.30;94.80;;;;;;5055980;28;20044;-77
2022/11/17 03:42:22;;;;;;;0.00;0.00;;;13.30;95.10;;;;;;5089973;28;20103;-77
2022/11/17 03:45:04;;;;;;;0.13;0.13;;;13.10;95.90;;;;;;5089729;28;20043;-77
2022/11/17 03:47:43;;;;;;;0.15;0.15;;;13.00;96.10;;;;;;5089500;28;20020;-76
2022/11/17 03:53:34;;;;;;;0.10;0.10;;;13.00;95.40;;;;;;5065576;28;20709;-77
2022/11/17 03:56:42;;;;;;;0.22;0.08;;;13.10;95.90;;;;;;5091144;28;20107;-77
2022/11/17 03:59:48;;;;;;;0.10;0.10;;;13.10;95.40;;;;;;5093359;28;20110;-76
2022/11/17 04:02:32;;;;;;;0.10;0.10;;;13.00;95.80;;;;;;5081014;28;20024;-77
2022/11/17 04:05:26;;;;;;;0.10;0.10;;;12.90;96.30;;;;;;5092939;28;20028;-78
2022/11/17 04:16:35;;;;;;;0.30;0.20;;;12.60;97.80;;;;;;5093146;28;20034;-76
2022/11/17 04:19:23;;;;;;;0.00;0.00;;;12.50;99.10;;;;;;5091366;28;20055;-76
2022/11/17 04:21:54;;;;;;;0.10;0.10;;;12.40;99.90;;;;;;5092690;28;20020;-76
2022/11/17 04:24:21;;;;;;;0.10;0.10;;;12.20;99.90;;;;;;5092590;28;20472;-76
2022/11/17 04:29:59;;;;;;;;;;;;;;;;;;;;;
2022/11/17 04:32:28;;;;;;;0.10;0.10;;;11.60;99.90;;;;;;5092624;28;20431;-76
2022/11/17 04:35:17;;;;;;;0.30;0.30;;;11.50;99.90;;;;;;5089776;28;20374;-76
2022/11/17 04:37:55;;;;;;;0.10;0.10;;;11.30;99.90;;;;;;5092623;28;20435;-76
2022/11/17 04:44:07;;;;;;;0.30;0.30;;;10.90;99.90;;;;;;5009434;28;20673;-75
2022/11/17 04:46:56;;;;;;;0.10;0.10;;;10.70;99.90;;;;;;5021670;28;20044;-76
2022/11/17 04:49:26;;;;;;;0.20;0.20;;;10.70;99.90;;;;;;5091011;28;20084;-76
2022/11/17 04:52:10;;;;;;;0.10;0.10;;;10.70;99.90;;;;;;5090779;28;20403;-77
2022/11/17 04:54:45;;;;;;;0.10;0.10;;;10.60;99.90;;;;;;5092154;28;20028;-76
2022/11/17 04:57:52;;;;;;;0.20;0.20;;;10.60;99.90;;;;;;5086006;28;20397;-75
2022/11/17 05:00:50;;;;;;;0.20;0.20;;;10.70;99.90;;;;;;5090450;28;20078;-75
2022/11/17 05:03:32;;;;;;;3.88;0.98;;;11.00;99.90;;;;;;5075423;28;20032;-75
2022/11/17 05:06:17;;;;;;;2.67;0.40;;;11.00;99.90;;;;;;5090726;28;20028;-76
2022/11/17 05:08:57;;;;;;;0.65;0.40;;;11.00;99.90;;;;;;5091141;28;20400;-75
2022/11/17 05:14:42;;;;;;;1.25;0.30;;;10.90;99.90;;;;;;5092022;28;20181;-76
2022/11/17 05:17:14;;;;;;;0.50;0.50;;;10.80;99.90;;;;;;5091893;28;20582;-76
2022/11/17 05:20:01;;;;;;;1.35;0.52;;;10.80;99.90;;;;;;5091550;28;20178;-75
2022/11/17 05:25:30;;;;;;;1.25;0.77;;;10.70;99.90;;;;;;5091759;28;20035;-76
2022/11/17 05:28:04;;;;;;;;;;;10.60;99.90;;;;;;5090779;28;20020;-77
2022/11/17 05:30:58;;;;;;;0.30;0.20;;;10.50;99.90;;;;;;5091544;28;19940;-77
2022/11/17 05:33:27;;;;;;;0.30;0.30;;;10.30;99.90;;;;;;5091270;28;20536;-76
2022/11/17 05:35:59;;;;;;;0.60;0.20;;;10.10;99.90;;;;;;5090058;28;20381;-77
2022/11/17 05:38:48;;;;;;;0.20;0.20;;;9.90;99.90;;;;;;5090020;28;20114;-77
2022/11/17 05:41:20;;;;;;;0.38;0.20;;;9.90;99.90;;;;;;5090163;28;20052;-77
2022/11/17 05:43:56;;;;;;;5.30;0.45;;;9.90;99.90;;;;;;5091739;28;20052;-77
2022/11/17 05:46:33;;;;;;;0.77;0.43;;;9.90;99.90;;;;;;5089877;28;20038;-76
2022/11/17 05:49:37;;;;;;;1.45;0.43;;;9.90;99.90;;;;;;5091155;28;20016;-76
2022/11/17 05:52:45;;;;;;;2.60;0.28;;;10.00;99.90;;;;;;5089366;28;20099;-77
2022/11/17 05:55:42;;;;;;;0.22;0.22;;;10.00;99.90;;;;;;5091043;28;20025;-76
2022/11/17 05:58:38;;;;;;;0.20;0.20;;;9.00;99.90;;;;;;5091022;28;20113;-77
2022/11/17 06:01:10;;;;;;;0.30;0.30;;;9.90;99.90;;;;;;5089582;28;20058;-77
2022/11/17 06:04:13;;;;;;;;;;;;;;;;;;;;;
2022/11/17 06:06:39;;;;;;;0.85;0.38;;;9.70;99.90;;;;;;5090924;28;20058;-76
2022/11/17 06:09:14;;;;;;;1.52;0.40;;;9.80;99.90;;;;;;5090431;28;20450;-77
2022/11/17 06:11:59;;;;;;;2.25;0.93;;;9.80;99.90;;;;;;5090547;28;20024;-77
2022/11/17 06:14:51;;;;;;;0.28;0.28;;;9.80;99.90;;;;;;5088942;28;20384;-76
2022/11/17 06:17:39;;;;;;;0.43;0.40;;;9.90;99.90;;;;;;5090453;28;20012;-77
2022/11/17 06:20:28;;;;;;;2.90;0.30;;;10.10;99.90;;;;;;5090253;28;20028;-78
2022/11/17 06:23:06;;;;;;;0.30;0.25;;;10.10;99.90;;;;;;5089443;28;20472;-77
2022/11/17 06:28:42;;;;;;;0.60;0.60;;;10.20;99.90;;;;;;5090902;28;20031;-82
2022/11/17 06:31:27;;;;;;;0.52;0.40;;;10.30;99.90;;;;;;5091330;28;20024;-83
2022/11/17 06:34:07;;;;;;;0.10;0.10;;;10.30;99.90;;;;;;5090081;28;20038;-82
2022/11/17 06:36:54;;;;;;;4.53;0.63;;;10.40;99.90;;;;;;5088896;28;20043;-85
2022/11/17 06:39:42;;;;;;;0.70;0.70;;;10.40;99.90;;;;;;5091305;28;20387;-86
2022/11/17 06:45:21;;;;;;;0.68;0.40;;;10.40;99.90;;;;;;5074005;28;20043;-78
2022/11/17 06:48:27;;;;;;;;;;;;;;;;;;;;;
2022/11/17 06:51:13;;;;;;;0.47;0.30;;;10.60;99.90;;;;;;5058649;28;20477;-88
2022/11/17 06:53:45;;;;;;;0.38;0.30;;;10.50;99.90;;;;;;5072062;28;20083;-86
2022/11/17 06:56:32;;;;;;;0.85;0.40;;;10.50;99.90;;;;;;5088298;28;20032;-80
2022/11/17 06:59:14;;;;;;;1.98;0.47;;;10.50;99.90;;;;;;5090697;28;20116;-88
2022/11/17 07:02:04;;;;;;;2.53;0.40;;;10.50;99.90;;;;;;5088345;28;20536;-76
2022/11/17 07:04:36;;;;;;;0.70;0.70;;;10.60;99.90;;;;;;5074604;28;20520;-76
2022/11/17 07:07:13;;;;;;;0.50;0.50;;;10.70;99.90;;;;;;5079059;28;20589;-76
2022/11/17 07:13:10;;;;;;;3.50;0.70;;;10.80;99.90;;;;;;5087015;28;20120;-75
2022/11/17 07:15:51;;;;;;;1.13;0.52;;;10.90;99.90;;;;;;5085137;28;20024;-75
2022/11/17 07:18:33;;;;;;;0.30;0.20;;;10.90;99.90;;;;;;5085386;28;20103;-79
2022/11/17 07:21:24;;;;;;;1.52;1.30;;;10.90;99.90;;;;;;5084681;28;20297;-75
2022/11/17 07:27:16;;;;;;;0.98;0.40;;;10.80;99.90;;;;;;5086761;28;20043;-76
2022/11/17 07:33:41;;;;;;;0.20;0.20;;;10.80;99.90;;;;;;5092165;28;20511;-76
2022/11/17 07:36:59;;;;;;;0.38;0.30;;;10.80;99.90;;;;;;5090983;28;20082;-77
2022/11/17 07:46:19;;;;;;;0.30;0.25;;;10.80;99.90;;;;;;5090637;28;20032;-77
2022/11/17 07:49:15;;;;;;;0.43;0.43;;;10.90;99.90;;;;;;5091532;28;20448;-76
2022/11/17 07:52:00;;;;;;;0.98;0.45;;;11.00;99.90;;;;;;5091142;28;20048;-83
2022/11/17 07:57:56;;;;;;;;;;;11.10;99.90;;;;;;5059917;28;20510;-84
2022/11/17 08:00:54;;;;;;;0.68;0.55;;;11.10;99.90;;;;;;5091069;28;20224;-83
2022/11/17 08:03:35;;;;;;;7.50;1.17;;;11.10;99.90;;;;;;5091033;28;20043;-83
2022/11/17 08:06:13;;;;;;;0.88;0.40;;;11.20;99.90;;;;;;5091763;28;20050;-83
2022/11/17 08:09:15;;;;;;;1.65;0.85;;;11.50;99.90;;;;;;5090135;28;20020;-82
2022/11/17 08:11:50;;;;;;;4.07;0.85;;;11.50;99.90;;;;;;5103689;28;20071;-83
2022/11/17 08:14:34;;;;;;;3.17;0.70;;;11.60;99.90;;;;;;5091526;28;20477;-80
2022/11/17 08:17:28;;;;;;;5.45;2.03;;;11.60;99.90;;;;;;5090085;28;20516;-86
2022/11/17 08:20:32;;;;;;;3.72;0.45;;;11.80;99.90;;;;;;5088531;28;20044;-82
2022/11/17 08:23:17;;;;;;;0.90;0.85;;;11.90;99.90;;;;;;5063221;28;20038;-76
2022/11/17 08:26:12;;;;;;;0.73;0.73;;;12.00;99.90;;;;;;5090158;28;20496;-76
2022/11/17 08:29:00;;;;;;;0.28;0.28;;;11.90;99.90;;;;;;5089115;28;20032;-76
2022/11/17 08:32:08;;;;;;;0.60;0.60;;;11.40;99.90;;;;;;5090228;28;20031;-76
2022/11/17 08:35:04;;;;;;;6.82;1.20;;;11.30;99.90;;;;;;5058912;28;20320;-76
2022/11/17 08:37:48;;;;;;;0.73;0.38;;;11.10;99.90;;;;;;5088370;28;20427;-75
2022/11/17 08:40:20;;;;;;;2.03;0.25;;;10.80;99.90;;;;;;5105593;28;20410;-76
2022/11/17 08:43:11;;;;;;;;;;;;;;;;;;;;;
2022/11/17 08:45:40;;;;;;;1.92;0.32;;;10.60;99.90;;;;;;5089791;28;20047;-76
2022/11/17 08:48:33;;;;;;;1.00;0.50;;;10.50;99.90;;;;;;5089293;28;20043;-77
2022/11/17 08:51:16;;;;;;;0.50;0.50;;;10.60;99.90;;;;;;5090078;28;20028;-76
2022/11/17 08:53:48;;;;;;;0.52;0.52;;;7.60;99.90;;;;;;5088099;28;20031;-76
2022/11/17 08:56:29;;;;;;;0.63;0.50;;;10.70;99.90;;;;;;5089355;28;20393;-76
2022/11/17 08:59:19;;;;;;;1.75;0.60;;;10.80;99.90;;;;;;5087467;28;20497;-76
2022/11/17 09:04:54;;;;;;;4.15;0.80;;;10.80;99.90;;;;;;5065751;28;20120;-76
2022/11/17 09:07:29;;;;;;;3.78;0.50;;;11.00;99.90;;;;;;5068336;28;20041;-77
2022/11/17 09:13:22;;;;;;;2.78;0.43;;;11.00;99.90;;;;;;5061615;28;20079;-77
2022/11/17 09:16:04;;;;;;;;;;;;;;;;;;;;;
2022/11/17 09:18:59;;;;;;;1.38;0.90;;;11.10;99.90;;;;;;5068701;28;20021;-80
2022/11/17 09:21:34;;;;;;;1.75;0.47;;;11.10;99.90;;;;;;5068625;28;20445;-76
2022/11/17 09:24:16;;;;;;;1.08;0.47;;;11.10;99.90;;;;;;5084612;28;20020;-75
2022/11/17 09:26:56;;;;;;;2.00;0.77;;;11.20;99.90;;;;;;5085286;28;20520;-76
2022/11/17 09:29:37;;;;;;;9.35;0.60;;;11.20;99.90;;;;;;5083939;28;20032;-76
2022/11/17 09:32:20;;;;;;;4.40;0.30;;;11.30;99.90;;;;;;5068751;28;20031;-82
2022/11/17 09:34:53;;;;;;;3.22;0.47;;;13.70;99.90;;;;;;5084935;28;20059;-82
2022/11/17 09:37:32;;;;;;;2.65;0.50;;;11.50;99.90;;;;;;5068311;28;20119;-83
2022/11/17 09:40:05;;;;;;;2.90;0.32;;;11.60;99.90;;;;;;5085442;28;20036;-77
2022/11/17 09:45:36;;;;;;;1.55;0.40;;;11.90;99.90;;;;;;5048559;28;20025;-77
2022/11/17 09:48:10;;;;;;;1.85;0.40;;;12.00;99.90;;;;;;5070938;28;20063;-76
2022/11/17 09:50:38;;;;;;;0.85;0.60;;;12.00;99.90;;;;;;5086399;28;20070;-77
2022/11/17 09:53:39;;;;;;;4.10;1.85;;;12.10;99.90;;;;;;5070091;28;20271;-77
2022/11/17 09:56:08;;;;;;;2.75;0.63;;;12.20;99.90;;;;;;5084618;28;20211;-76
2022/11/17 09:58:45;;;;;;;2.35;0.40;;;12.30;99.90;;;;;;5090647;28;20027;-78
2022/11/17 10:01:13;;;;;;;3.03;1.17;;;12.10;99.90;;;;;;5092173;28;20036;-81
2022/11/17 10:03:39;;;;;;;0.82;0.55;;;12.30;99.90;;;;;;5088555;28;20020;-81
2022/11/17 10:06:18;;;;;;;7.03;0.70;;;12.40;99.80;;;;;;5089440;28;20047;-83
2022/11/17 10:09:16;;;;;;;0.70;0.70;;;12.50;98.80;;;;;;5088329;28;20118;-82
2022/11/17 10:11:43;;;;;;;3.70;0.70;;;12.60;97.60;;;;;;5059892;28;20465;-83
2022/11/17 10:14:13;;;;;;;1.63;0.85;;;12.70;97.70;;;;;;5087689;28;20388;-82
2022/11/17 10:16:59;;;;;;;5.70;1.52;;;12.80;97.00;;;;;;5087797;28;20024;-82
2022/11/17 10:19:30;;;;;;;3.38;0.50;;;12.80;95.50;;;;;;5087306;28;20035;-84
2022/11/17 10:22:01;;;;;;;2.17;0.50;;;12.90;95.10;;;;;;5086342;28;20024;-81
2022/11/17 10:24:35;;;;;;;7.25;1.42;;;13.00;94.90;;;;;;5087135;28;20051;-84
2022/11/17 10:27:14;;;;;;;3.17;0.68;;;13.00;94.70;;;;;;5087026;28;20024;-83
2022/11/17 10:29:40;;;;;;;1.45;0.80;;;13.10;94.60;;;;;;5085965;28;20122;-85
2022/11/17 10:32:13;;;;;;;5.25;1.10;;;13.20;93.90;;;;;;5103709;28;20112;-81
2022/11/17 10:34:39;;;;;;;0.98;0.80;;;13.20;94.20;;;;;;5088564;28;20040;-83
2022/11/17 10:37:26;;;;;;;6.90;1.92;;;13.40;93.90;;;;;;5088852;28;20031;-83
2022/11/17 10:40:06;;;;;;;2.95;0.65;;;;;;;;;;5088712;28;20031;-79
2022/11/17 10:42:32;;;;;;;3.08;1.10;;;13.40;91.70;;;;;;5087263;28;20024;-84
2022/11/17 10:45:00;;;;;;;4.05;0.95;;;12.00;91.60;;;;;;5088648;28;20044;-76
2022/11/17 10:47:29;;;;;;;4.63;0.88;;;13.90;92.30;;;;;;5087815;28;20047;-78
2022/11/17 10:50:26;;;;;;;2.90;0.88;;;13.80;92.70;;;;;;5086413;28;20024;-79
2022/11/17 10:52:54;;;;;;;5.35;1.00;;;13.90;90.70;;;;;;5087191;28;20019;-85
2022/11/17 10:55:26;;;;;;;4.82;0.95;;;14.00;90.90;;;;;;5087292;28;20024;-85
2022/11/17 10:58:05;;;;;;;6.38;1.02;;;14.00;91.30;;;;;;5086385;28;20031;-76
2022/11/17 11:00:36;;;;;;;4.53;0.68;;;14.00;90.80;;;;;;5086171;28;20044;-77
2022/11/17 11:03:20;;;;;;;2.75;0.98;;;13.90;91.50;;;;;;5103641;28;20471;-80
2022/11/17 11:06:03;;;;;;;4.45;0.70;;;13.90;91.00;;;;;;5088261;28;20028;-78
2022/11/17 11:08:43;;;;;;;3.28;0.77;;;13.90;89.10;;;;;;5088513;28;20020;-77
2022/11/17 11:11:38;;;;;;;2.28;0.70;;;13.90;88.90;;;;;;5086231;28;20488;-77
2022/11/17 11:14:24;;;;;;;2.80;0.73;;;14.10;88.00;;;;;;5087596;28;20047;-76
2022/11/17 11:16:50;;;;;;;1.05;0.55;;;14.10;88.70;;;;;;5088611;28;20039;-78
2022/11/17 11:19:18;;;;;;;1.95;0.88;;;14.20;88.00;;;;;;5085644;28;20045;-76
2022/11/17 11:22:00;;;;;;;1.65;0.63;;;13.90;88.10;;;;;;5087576;28;20031;-79
2022/11/17 11:24:49;;;;;;;0.80;0.77;;;14.20;87.70;;;;;;5086979;28;20028;-78
2022/11/17 11:27:38;;;;;;;6.10;0.65;;;14.40;90.30;;;;;;5086232;28;20166;-79
2022/11/17 11:30:12;;;;;;;2.85;0.80;;;14.70;87.20;;;;;;5087080;28;20028;-76
2022/11/17 11:32:40;;;;;;;9.27;0.77;;;14.90;85.00;;;;;;5086914;28;20046;-76
2022/11/17 11:35:21;;;;;;;3.70;1.25;;;14.90;83.90;;;;;;5086021;28;20483;-79
2022/11/17 11:38:12;;;;;;;1.65;0.63;;;14.70;83.00;;;;;;5087094;28;20459;-76
2022/11/17 11:40:41;;;;;;;3.58;1.45;;;14.70;83.20;;;;;;5055059;28;20493;-79
2022/11/17 11:43:28;;;;;;;2.80;0.35;;;14.60;83.60;;;;;;5087348;28;20016;-78
2022/11/17 11:46:00;;;;;;;3.35;0.40;;;14.40;83.00;;;;;;5085874;28;20051;-76
2022/11/17 11:48:35;;;;;;;5.55;1.38;;;14.20;84.10;;;;;;5085485;28;20467;-83
2022/11/17 11:51:23;;;;;;;9.02;1.60;;;14.10;84.00;;;;;;5102594;28;20501;-82
2022/11/17 11:54:05;;;;;;;0.98;0.70;;;14.10;83.80;;;;;;5085844;28;20028;-78
2022/11/17 11:56:38;;;;;;;4.45;0.63;;;14.20;87.00;;;;;;5086058;28;20032;-79
2022/11/17 11:59:10;;;;;;;6.05;0.90;;;14.30;81.50;;;;;;5085367;28;20039;-77
2022/11/17 12:01:50;;;;;;;4.65;0.50;;;14.40;82.60;;;;;;5085639;28;20146;-82
2022/11/17 12:04:29;;;;;;;1.13;0.45;;;14.50;82.20;;;;;;5085254;28;20020;-80
2022/11/17 12:07:27;;;;;;;6.03;0.98;;;14.70;83.10;;;;;;5085766;28;20024;-79
2022/11/17 12:10:04;;;;;;;1.23;1.00;;;14.80;81.50;;;;;;5095285;28;20055;-77
2022/11/17 12:12:35;;;;;;;1.35;0.50;;;15.00;80.20;;;;;;5085508;28;20123;-77
2022/11/17 12:15:19;;;;;;;4.50;0.80;;;15.20;81.50;;;;;;5085234;28;20024;-79
2022/11/17 12:17:51;;;;;;;5.95;0.80;;;15.30;79.30;;;;;;5088275;28;20034;-80
2022/11/17 12:20:52;;;;;;;4.05;0.40;;;15.50;78.70;;;;;;5088687;28;20392;-77
2022/11/17 12:23:56;;;;;;;8.60;0.60;;;15.60;77.20;;;;;;5090360;28;20561;-76
2022/11/17 12:26:25;;;;;;;0.32;0.32;;;15.40;75.80;;;;;;5089074;28;20077;-79
2022/11/17 12:29:20;;;;;;;2.67;0.30;;;15.20;76.00;;;;;;5089215;28;20054;-76
2022/11/17 12:31:47;;;;;;;5.18;0.73;;;15.10;77.30;;;;;;5089219;28;20537;-77
2022/11/17 12:34:25;;;;;;;1.17;0.30;;;15.20;76.70;;;;;;5088619;28;20020;-77
2022/11/17 12:37:13;;;;;;;1.00;0.28;;;15.30;76.30;;;;;;5089333;28;20105;-81
2022/11/17 12:39:58;;;;;;;0.45;0.43;;;15.40;78.30;;;;;;5090168;28;20020;-77
2022/11/17 12:42:25;;;;;;;0.40;0.30;;;15.30;77.40;;;;;;5089588;28;20224;-77
2022/11/17 12:45:17;;;;;;;3.03;1.10;;;15.30;76.00;;;;;;5093615;28;20028;-76
2022/11/17 12:47:45;;;;;;;2.30;0.43;;;15.10;77.50;;;;;;5085215;28;20032;-77
2022/11/17 12:50:17;;;;;;;0.45;0.35;;;14.90;76.40;;;;;;5089989;28;20020;-77
2022/11/17 12:52:42;;;;;;;0.38;0.38;;;14.90;78.90;;;;;;5087512;28;20036;-76
2022/11/17 12:55:23;;;;;;;0.40;0.20;;;15.00;77.90;;;;;;5087998;28;20500;-76
2022/11/17 12:57:58;;;;;;;3.10;1.30;;;14.90;78.70;;;;;;5088581;28;20047;-76
2022/11/17 13:00:24;;;;;;;0.73;0.38;;;14.80;78.40;;;;;;5088395;28;20032;-76
2022/11/17 13:02:52;;;;;;;0.32;0.22;;;14.70;79.00;;;;;;5089188;28;20024;-78
2022/11/17 13:05:21;;;;;;;2.63;0.20;;;14.60;78.50;;;;;;5088027;28;20032;-76
2022/11/17 13:07:48;;;;;;;0.25;0.20;;;14.80;77.50;;;;;;5087217;28;20016;-76
2022/11/17 13:10:30;;;;;;;0.28;0.20;;;15.40;77.80;;;;;;5092095;28;20039;-81
2022/11/17 13:13:19;;;;;;;0.57;0.52;;;16.20;75.80;;;;;;5090302;28;20020;-79
2022/11/17 13:15:52;;;;;;;1.45;0.45;;;17.00;71.70;;;;;;5089304;28;20148;-77
2022/11/17 13:18:29;;;;;;;0.43;0.22;;;17.70;69.90;;;;;;5091384;28;20024;-85
2022/11/17 13:20:57;;;;;;;0.47;0.40;;;18.30;67.10;;;;;;5090987;28;20051;-76
2022/11/17 13:23:25;;;;;;;0.80;0.43;;;19.00;65.50;;;;;;5088601;28;20166;-79
2022/11/17 13:26:21;;;;;;;0.40;0.20;;;19.60;63.40;;;;;;5105135;28;20032;-78
2022/11/17 13:28:48;;;;;;;0.17;0.17;;;19.50;61.10;;;;;;5089189;28;20020;-79
2022/11/17 13:31:24;;;;;;;0.25;0.25;;;18.10;64.10;;;;;;5091048;28;20016;-80
2022/11/17 13:34:04;;;;;;;0.20;0.20;;;16.80;66.80;;;;;;5089589;28;20391;-77
2022/11/17 13:36:30;;;;;;;1.45;0.10;;;13.40;70.00;;;;;;5089004;28;20123;-77
2022/11/17 13:38:59;;;;;;;0.65;0.50;;;15.70;71.40;;;;;;5088918;28;20117;-83
2022/11/17 13:41:26;;;;;;;0.00;0.00;;;15.80;71.60;;;;;;5095769;28;20039;-82
2022/11/17 13:43:53;;;;;;;1.08;0.20;;;15.70;70.90;;;;;;5088479;28;20319;-84
2022/11/17 13:46:19;;;;;;;1.42;0.35;;;15.60;72.00;;;;;;5087914;28;20441;-79
2022/11/17 13:48:47;;;;;;;0.95;0.10;;;15.10;71.40;;;;;;5089085;28;20066;-76
2022/11/17 13:51:18;;;;;;;0.38;0.20;;;15.20;73.70;;;;;;5089016;28;20462;-76
2022/11/17 13:53:51;;;;;;;1.70;0.60;;;15.10;72.20;;;;;;5095833;28;20031;-78
2022/11/17 13:56:25;;;;;;;0.63;0.17;;;14.80;72.60;;;;;;5088614;28;20020;-85
2022/11/17 13:58:51;;;;;;;1.13;0.10;;;14.60;74.00;;;;;;5087612;28;20391;-76
2022/11/17 14:01:31;;;;;;;2.33;0.43;;;14.60;74.10;;;;;;5091179;28;20036;-83
2022/11/17 14:04:15;;;;;;;1.38;0.20;;;14.80;73.90;;;;;;5090717;28;20027;-79
2022/11/17 14:06:56;;;;;;;0.38;0.28;;;15.30;73.10;;;;;;5088522;28;20036;-77
2022/11/17 14:09:23;;;;;;;0.57;0.40;;;15.60;72.80;;;;;;5089713;28;20023;-77
2022/11/17 14:11:50;;;;;;;0.30;0.30;;;15.50;71.50;;;;;;5088700;28;20054;-76
2022/11/17 14:14:39;;;;;;;0.82;0.20;;;15.20;73.60;;;;;;5088076;28;20095;-76
2022/11/17 14:17:12;;;;;;;0.00;0.00;;;15.20;73.70;;;;;;5087095;28;20182;-77
2022/11/17 14:19:38;;;;;;;0.20;0.20;;;15.20;73.30;;;;;;5086920;28;20454;-76
2022/11/17 14:22:07;;;;;;;3.60;0.93;;;15.10;74.30;;;;;;5086907;28;20499;-77
2022/11/17 14:24:33;;;;;;;0.47;0.20;;;15.10;74.30;;;;;;5087781;28;20092;-76
2022/11/17 14:27:00;;;;;;;0.90;0.43;;;15.00;75.20;;;;;;5086545;28;20271;-79
2022/11/17 14:29:27;;;;;;;2.53;0.15;;;14.70;75.70;;;;;;5087874;28;20024;-77
2022/11/17 14:31:53;;;;;;;4.78;0.30;;;14.50;76.80;;;;;;5087812;28;20051;-79
2022/11/17 14:34:19;;;;;;;0.10;0.10;;;14.30;77.70;;;;;;5087193;28;20553;-76
2022/11/17 14:36:46;;;;;;;0.40;0.40;;;14.20;78.30;;;;;;5087819;28;20115;-76
2022/11/17 14:39:14;;;;;;;0.20;0.20;;;14.30;76.90;;;;;;5086456;28;20059;-78
2022/11/17 14:41:41;;;;;;;4.30;0.40;;;14.50;76.10;;;;;;5088466;28;20032;-84
2022/11/17 14:44:08;;;;;;;1.95;0.20;;;14.80;75.30;;;;;;5088235;28;20024;-81
2022/11/17 14:46:34;;;;;;;0.20;0.20;;;15.10;75.70;;;;;;5103876;28;20032;-77
2022/11/17 14:49:00;;;;;;;1.67;0.60;;;15.00;74.60;;;;;;5087414;28;20012;-76
2022/11/17 14:51:26;;;;;;;1.98;0.43;;;14.60;74.80;;;;;;5089040;28;20038;-77
2022/11/17 14:53:53;;;;;;;0.45;0.32;;;14.30;76.40;;;;;;5087652;28;20093;-78
2022/11/17 14:56:20;;;;;;;0.75;0.30;;;14.20;77.40;;;;;;5088100;28;20035;-82
2022/11/17 14:58:51;;;;;;;3.42;0.38;;;14.00;76.50;;;;;;5088624;28;20067;-78
2022/11/17 15:01:23;;;;;;;0.70;0.30;;;14.00;77.50;;;;;;5088226;28;20036;-79
2022/11/17 15:03:51;;;;;;;3.25;0.60;;;13.90;77.50;;;;;;5089564;28;20077;-77
2022/11/17 15:06:17;;;;;;;0.90;0.32;;;;;;;;;;5088687;28;20374;-85
2022/11/17 15:08:43;;;;;;;0.15;0.10;;;13.80;77.90;;;;;;5087799;28;20431;-76
2022/11/17 15:11:14;;;;;;;1.02;0.30;;;13.70;78.20;;;;;;5086499;28;20028;-79
2022/11/17 15:13:41;;;;;;;0.55;0.32;;;;;;;;;;5088816;28;20598;-82
2022/11/17 15:16:07;;;;;;;0.17;0.10;;;13.60;77.40;;;;;;5087752;28;20508;-84
2022/11/17 15:18:36;;;;;;;0.82;0.10;;;;;;;;;;5090890;28;20032;-87